Time;durP1;ratioP1;P1;durP2;ratioP2;P2;SDS_P1;SDS_P2;PMS_P1;PMS_P2;Temp;Humidity;BMP_temperature;BMP_pressure;BME280_temperature;BME280_humidity;BME280_pressure;Samples;Min_cycle;Max_cycle;Signal;HPM_P1;HPM_P2
2023/09/18 08:10:55;;;;;;;0.98;0.70;;;24.60;99.90;;;;;;4979377;23;20462;-71
2023/09/18 08:13:23;;;;;;;1.02;0.90;;;24.60;99.90;;;;;;4955500;28;20299;-71
2023/09/18 08:15:50;;;;;;;1.85;0.80;;;24.70;99.90;;;;;;4952329;28;20703;-71
2023/09/18 08:18:17;;;;;;;2.53;0.60;;;25.00;99.90;;;;;;4940123;29;20295;-73
2023/09/18 08:20:44;;;;;;;6.70;1.05;;;24.50;99.90;;;;;;4954180;29;20208;-73
2023/09/18 08:23:12;;;;;;;2.72;0.73;;;24.30;99.90;;;;;;4954153;29;20681;-73
2023/09/18 08:25:39;;;;;;;2.80;0.80;;;23.80;99.90;;;;;;4953596;28;20208;-73
2023/09/18 08:28:08;;;;;;;4.00;0.90;;;23.50;99.90;;;;;;4943757;29;20213;-73
2023/09/18 08:30:36;;;;;;;1.08;0.90;;;23.50;99.90;;;;;;4935033;29;20244;-74
2023/09/18 08:33:04;;;;;;;1.90;0.80;;;23.60;99.90;;;;;;4934848;29;20220;-72
2023/09/18 08:35:32;;;;;;;2.53;1.00;;;23.50;99.90;;;;;;4934727;29;20660;-75
2023/09/18 08:37:59;;;;;;;1.30;0.85;;;23.40;99.90;;;;;;4934485;29;20213;-75
2023/09/18 08:40:26;;;;;;;3.35;0.90;;;23.10;99.90;;;;;;4934781;29;20251;-72
2023/09/18 08:42:56;;;;;;;4.32;1.00;;;23.00;99.90;;;;;;4934956;29;20240;-75
2023/09/18 08:45:33;;;;;;;2.42;1.10;;;22.60;99.90;;;;;;4934899;29;20295;-75
2023/09/18 08:48:01;;;;;;;2.72;1.02;;;22.20;99.90;;;;;;4934541;29;20208;-71
2023/09/18 08:50:30;;;;;;;2.08;1.17;;;22.20;99.90;;;;;;4934473;29;20291;-74
2023/09/18 08:52:57;;;;;;;1.70;0.98;;;22.10;99.90;;;;;;4934990;29;20295;-72
2023/09/18 08:55:25;;;;;;;1.63;0.90;;;22.10;99.90;;;;;;4934881;29;20327;-72
2023/09/18 08:57:53;;;;;;;2.67;1.23;;;22.10;99.90;;;;;;4934327;29;20264;-73
2023/09/18 09:00:20;;;;;;;2.58;1.10;;;21.90;99.90;;;;;;4934730;29;20219;-72
2023/09/18 09:02:52;;;;;;;2.17;1.05;;;21.70;99.90;;;;;;4934188;29;20212;-73
2023/09/18 09:05:19;;;;;;;5.45;1.20;;;21.70;99.90;;;;;;4934577;29;20205;-72
2023/09/18 09:07:46;;;;;;;1.90;1.17;;;21.70;99.90;;;;;;4934475;29;20775;-71
2023/09/18 09:10:13;;;;;;;1.90;1.13;;;21.60;99.90;;;;;;4934310;29;20259;-74
2023/09/18 09:13:04;;;;;;;1.10;0.90;;;21.50;99.90;;;;;;4934286;29;20735;-75
2023/09/18 09:15:36;;;;;;;2.88;1.00;;;21.50;99.90;;;;;;4919566;29;20268;-73
2023/09/18 09:18:07;;;;;;;2.38;1.13;;;21.50;99.90;;;;;;4938113;29;20268;-72
2023/09/18 09:20:35;;;;;;;1.30;1.10;;;21.50;99.90;;;;;;4938713;29;20296;-74
2023/09/18 09:23:03;;;;;;;2.47;1.60;;;21.40;99.90;;;;;;4938498;29;20668;-74
2023/09/18 09:25:32;;;;;;;2.13;1.20;;;21.50;99.90;;;;;;4938030;29;20292;-74
2023/09/18 09:28:00;;;;;;;2.05;1.27;;;21.40;99.90;;;;;;4937836;29;20215;-74
2023/09/18 09:30:29;;;;;;;4.38;1.00;;;21.30;99.90;;;;;;4938299;29;20244;-75
2023/09/18 09:32:57;;;;;;;2.45;1.50;;;21.40;99.90;;;;;;4938080;29;20703;-74
2023/09/18 09:35:28;;;;;;;2.30;1.50;;;21.50;99.90;;;;;;4938026;29;20323;-75
2023/09/18 09:37:57;;;;;;;2.60;1.08;;;21.20;99.90;;;;;;4937651;29;20208;-73
2023/09/18 09:40:25;;;;;;;3.25;1.10;;;21.30;99.90;;;;;;4937793;29;20248;-72
2023/09/18 09:43:00;;;;;;;2.03;1.27;;;21.30;99.90;;;;;;4937959;29;20241;-74
2023/09/18 09:45:29;;;;;;;3.15;1.40;;;21.30;99.90;;;;;;4938011;29;20216;-72
2023/09/18 09:47:56;;;;;;;3.97;1.20;;;21.40;99.90;;;;;;4937621;29;20563;-72
2023/09/18 09:50:25;;;;;;;1.73;1.05;;;21.70;99.90;;;;;;4937843;29;20213;-72
2023/09/18 09:52:54;;;;;;;4.93;1.10;;;21.90;99.90;;;;;;4937735;29;20240;-73
2023/09/18 09:55:24;;;;;;;2.53;1.30;;;22.00;99.90;;;;;;4936977;29;20244;-73
2023/09/18 09:57:53;;;;;;;3.47;1.30;;;22.00;99.90;;;;;;4937228;29;20260;-73
2023/09/18 10:00:32;;;;;;;6.13;1.83;;;22.10;99.90;;;;;;4937807;29;20208;-74
2023/09/18 10:03:01;;;;;;;6.32;1.30;;;22.00;99.90;;;;;;4937305;29;20236;-72
2023/09/18 10:05:32;;;;;;;2.90;1.30;;;21.90;99.90;;;;;;4937039;29;20266;-73
2023/09/18 10:08:03;;;;;;;1.92;1.25;;;21.70;99.90;;;;;;4937709;29;20220;-73
2023/09/18 10:10:36;;;;;;;3.92;1.20;;;21.60;99.90;;;;;;4937463;29;20221;-74
2023/09/18 10:13:11;;;;;;;3.25;1.13;;;21.50;99.90;;;;;;4944130;28;20232;-72
2023/09/18 10:15:42;;;;;;;1.27;0.93;;;21.50;99.90;;;;;;4937690;28;20317;-74
2023/09/18 10:18:20;;;;;;;2.72;1.17;;;21.60;99.90;;;;;;4936942;28;20216;-72
2023/09/18 10:20:49;;;;;;;1.88;1.10;;;21.60;99.90;;;;;;4945329;28;20223;-72
2023/09/18 10:23:28;;;;;;;2.78;1.20;;;21.80;99.90;;;;;;4943173;28;20208;-72
2023/09/18 10:26:03;;;;;;;0.95;0.80;;;22.00;99.90;;;;;;4943604;28;20248;-73
2023/09/18 10:28:30;;;;;;;2.30;1.15;;;22.00;99.90;;;;;;4940730;28;20655;-74
2023/09/18 10:30:58;;;;;;;2.17;1.10;;;22.30;99.90;;;;;;4936700;29;20642;-72
2023/09/18 10:33:27;;;;;;;1.77;0.98;;;22.80;99.90;;;;;;4938291;29;20212;-72
2023/09/18 10:35:54;;;;;;;1.08;0.90;;;23.30;99.90;;;;;;4935756;29;20240;-73
2023/09/18 10:38:24;;;;;;;2.60;1.30;;;23.30;99.90;;;;;;4945309;28;20616;-73
2023/09/18 10:40:53;;;;;;;3.55;1.50;;;23.60;99.90;;;;;;4944170;28;20239;-72
2023/09/18 10:43:20;;;;;;;3.38;1.10;;;23.50;99.90;;;;;;4945702;28;20234;-73
2023/09/18 10:45:49;;;;;;;5.45;1.38;;;23.60;99.90;;;;;;4946371;28;20247;-72
2023/09/18 10:48:18;;;;;;;3.65;1.20;;;23.60;99.90;;;;;;4938828;28;20208;-74
2023/09/18 10:50:46;;;;;;;1.70;1.20;;;23.40;99.90;;;;;;4930600;29;20297;-73
2023/09/18 10:53:14;;;;;;;5.05;1.20;;;23.40;99.90;;;;;;4929453;29;20205;-73
2023/09/18 10:55:44;;;;;;;4.13;1.10;;;23.40;99.90;;;;;;4945437;28;20235;-72
2023/09/18 10:58:11;;;;;;;4.38;1.33;;;23.10;99.90;;;;;;4945884;28;20208;-73
2023/09/18 11:00:38;;;;;;;3.92;0.90;;;22.70;99.90;;;;;;4941413;28;20296;-71
2023/09/18 11:03:13;;;;;;;4.15;1.10;;;22.60;99.90;;;;;;4942005;28;20237;-72
2023/09/18 11:05:40;;;;;;;3.75;1.10;;;22.50;99.90;;;;;;4944390;28;20325;-73
2023/09/18 11:08:30;;;;;;;4.57;1.20;;;22.50;99.90;;;;;;4937629;28;20209;-73
2023/09/18 11:10:58;;;;;;;1.42;1.17;;;22.50;99.90;;;;;;4937429;29;20225;-74
2023/09/18 11:13:34;;;;;;;3.50;1.10;;;22.50;99.90;;;;;;4937175;29;20209;-72
2023/09/18 11:16:03;;;;;;;2.85;1.10;;;22.50;99.90;;;;;;4936845;29;20323;-73
2023/09/18 11:18:34;;;;;;;2.10;1.10;;;22.50;99.90;;;;;;4937041;29;20208;-72
2023/09/18 11:21:11;;;;;;;4.10;1.13;;;22.40;99.90;;;;;;4936766;29;20668;-71
2023/09/18 11:23:42;;;;;;;1.63;1.00;;;22.50;99.90;;;;;;4936555;29;20630;-72
2023/09/18 11:26:11;;;;;;;1.25;0.90;;;22.60;99.90;;;;;;4936771;29;20275;-71
2023/09/18 11:28:39;;;;;;;3.10;1.30;;;22.70;99.90;;;;;;4936841;29;20287;-71
2023/09/18 11:31:07;;;;;;;1.42;0.82;;;22.90;99.90;;;;;;4937244;29;20860;-71
2023/09/18 11:33:36;;;;;;;3.15;0.82;;;22.90;99.90;;;;;;4937442;29;20228;-71
2023/09/18 11:36:11;;;;;;;1.98;0.90;;;23.00;99.90;;;;;;4937006;29;20247;-74
2023/09/18 11:38:53;;;;;;;1.60;1.10;;;23.10;99.90;;;;;;4936604;29;20300;-73
2023/09/18 11:41:26;;;;;;;2.28;1.30;;;23.30;99.90;;;;;;4936398;29;20295;-71
2023/09/18 11:43:54;;;;;;;1.08;0.80;;;23.50;99.90;;;;;;4936691;29;20300;-71
2023/09/18 11:46:25;;;;;;;1.05;0.85;;;23.70;99.90;;;;;;4936410;29;20235;-72
2023/09/18 11:48:52;;;;;;;1.48;0.82;;;23.80;99.90;;;;;;4937000;29;20217;-72
2023/09/18 11:51:25;;;;;;;0.73;0.65;;;23.80;99.90;;;;;;4936883;29;20236;-72
2023/09/18 11:53:56;;;;;;;2.38;1.00;;;23.80;99.90;;;;;;4937184;29;20240;-72
2023/09/18 11:56:24;;;;;;;1.85;1.10;;;23.90;99.90;;;;;;4935796;29;20236;-71
2023/09/18 11:58:54;;;;;;;1.15;0.93;;;23.70;99.90;;;;;;4935910;29;20240;-71
2023/09/18 12:01:22;;;;;;;1.55;0.70;;;23.50;99.90;;;;;;4935900;29;20208;-71
2023/09/18 12:03:54;;;;;;;1.10;0.90;;;23.50;99.90;;;;;;4936264;29;20212;-72
2023/09/18 12:06:22;;;;;;;2.65;1.20;;;23.50;99.90;;;;;;4935803;29;20268;-74
2023/09/18 12:08:52;;;;;;;1.40;0.93;;;23.30;99.90;;;;;;4935985;29;20219;-72
2023/09/18 12:11:19;;;;;;;2.05;1.00;;;23.30;99.90;;;;;;4935961;29;20307;-72
2023/09/18 12:13:48;;;;;;;2.35;1.08;;;23.30;99.90;;;;;;4935998;29;20208;-72
2023/09/18 12:16:15;;;;;;;1.58;1.17;;;23.30;99.90;;;;;;4935895;29;20251;-74
2023/09/18 12:18:47;;;;;;;1.83;0.88;;;23.40;99.90;;;;;;4936212;29;20244;-72
2023/09/18 12:21:15;;;;;;;1.38;1.08;;;23.50;99.90;;;;;;4936089;29;20205;-71
2023/09/18 12:23:43;;;;;;;1.88;0.80;;;23.50;99.90;;;;;;4948222;29;20208;-73
2023/09/18 12:26:13;;;;;;;2.75;1.00;;;23.50;99.90;;;;;;4955293;28;20227;-71
2023/09/18 12:28:41;;;;;;;1.33;0.90;;;23.50;99.90;;;;;;4955002;29;20233;-72
2023/09/18 12:31:11;;;;;;;2.03;0.90;;;23.50;99.90;;;;;;4955035;28;20238;-72
2023/09/18 12:33:40;;;;;;;2.05;0.90;;;23.60;99.90;;;;;;4955019;29;20207;-72
2023/09/18 12:36:09;;;;;;;0.88;0.80;;;23.60;99.90;;;;;;4950362;28;20326;-73
2023/09/18 12:38:36;;;;;;;2.90;0.98;;;23.60;99.90;;;;;;4953828;29;20578;-72
2023/09/18 12:41:06;;;;;;;1.30;1.00;;;23.50;99.90;;;;;;4953627;29;20601;-71
2023/09/18 12:43:35;;;;;;;1.02;0.90;;;23.60;99.90;;;;;;4953830;28;20218;-72
2023/09/18 12:46:05;;;;;;;1.30;0.90;;;23.70;99.90;;;;;;4937017;29;20271;-73
2023/09/18 12:48:33;;;;;;;1.38;0.80;;;23.80;99.90;;;;;;4934610;29;20299;-72
2023/09/18 12:51:04;;;;;;;2.38;0.90;;;23.90;99.90;;;;;;4933957;29;20256;-73
2023/09/18 12:53:32;;;;;;;1.38;0.85;;;24.00;99.90;;;;;;4932787;29;20204;-72
2023/09/18 12:56:10;;;;;;;1.05;0.93;;;24.00;99.90;;;;;;4949314;28;20271;-71
2023/09/18 12:58:38;;;;;;;1.10;0.90;;;24.00;99.90;;;;;;4953111;29;20258;-72
2023/09/18 13:01:08;;;;;;;2.65;1.08;;;24.10;99.90;;;;;;4953628;29;20240;-74
2023/09/18 13:03:42;;;;;;;1.63;0.80;;;24.20;99.90;;;;;;4951668;29;20244;-72
2023/09/18 13:06:12;;;;;;;1.27;0.77;;;24.10;99.90;;;;;;4942061;28;20728;-71
2023/09/18 13:08:39;;;;;;;2.47;0.95;;;24.10;99.90;;;;;;4953503;29;20288;-69
2023/09/18 13:11:06;;;;;;;2.83;0.77;;;24.00;99.90;;;;;;4951580;29;20247;-69
2023/09/18 13:13:33;;;;;;;0.98;0.70;;;23.90;99.90;;;;;;4952345;29;20208;-71
2023/09/18 13:16:03;;;;;;;1.23;0.80;;;24.00;99.90;;;;;;4934426;29;20653;-71
2023/09/18 13:18:30;;;;;;;1.63;0.88;;;24.10;99.90;;;;;;4934437;29;20579;-72
2023/09/18 13:20:58;;;;;;;2.05;0.93;;;24.30;99.90;;;;;;4934206;29;20224;-71
2023/09/18 13:23:34;;;;;;;1.70;0.73;;;24.40;99.90;;;;;;4933747;29;20666;-70
2023/09/18 13:26:02;;;;;;;3.00;0.70;;;24.30;99.90;;;;;;4934344;29;20397;-71
2023/09/18 13:28:32;;;;;;;3.55;1.33;;;24.00;99.90;;;;;;4933811;29;20603;-72
2023/09/18 13:31:00;;;;;;;2.25;0.80;;;23.90;99.90;;;;;;4934290;29;20220;-72
2023/09/18 13:33:27;;;;;;;1.95;1.00;;;23.90;99.90;;;;;;4933956;29;20222;-72
2023/09/18 13:35:55;;;;;;;3.30;1.00;;;23.90;99.90;;;;;;4933712;29;20308;-73
2023/09/18 13:38:24;;;;;;;10.80;1.52;;;23.90;99.90;;;;;;4934281;29;20212;-72
2023/09/18 13:40:51;;;;;;;3.42;1.05;;;23.90;99.90;;;;;;4933843;29;20248;-72
2023/09/18 13:43:21;;;;;;;3.60;0.80;;;24.00;99.90;;;;;;4940366;29;20676;-71
2023/09/18 13:45:51;;;;;;;2.90;0.95;;;24.20;99.90;;;;;;4933910;29;20292;-69
2023/09/18 13:48:18;;;;;;;6.25;1.45;;;24.10;99.90;;;;;;4933554;29;20566;-70
2023/09/18 13:50:46;;;;;;;2.20;0.93;;;24.20;99.90;;;;;;4934035;29;20304;-70
2023/09/18 13:53:13;;;;;;;1.98;0.93;;;24.20;99.90;;;;;;4934217;29;20292;-69
2023/09/18 13:55:42;;;;;;;1.50;0.80;;;24.20;99.90;;;;;;4933478;29;20235;-70
2023/09/18 13:58:09;;;;;;;1.23;0.70;;;24.10;99.90;;;;;;4933920;29;20715;-71
2023/09/18 14:00:36;;;;;;;3.20;1.00;;;24.10;99.90;;;;;;4933922;29;20682;-72
2023/09/18 14:03:03;;;;;;;1.25;0.75;;;24.10;99.90;;;;;;4935959;29;20276;-72
2023/09/18 14:05:31;;;;;;;1.88;0.85;;;24.10;99.90;;;;;;4938830;29;20219;-73
2023/09/18 14:07:59;;;;;;;4.18;0.77;;;24.10;99.90;;;;;;4939087;29;20211;-72
2023/09/18 14:10:27;;;;;;;2.05;0.85;;;24.20;99.90;;;;;;4938532;29;20233;-70
2023/09/18 14:12:57;;;;;;;3.05;0.65;;;24.10;99.90;;;;;;4938596;29;20208;-70
2023/09/18 14:15:24;;;;;;;1.50;0.70;;;24.10;99.90;;;;;;4938685;29;20213;-75
2023/09/18 14:17:51;;;;;;;1.48;0.80;;;24.20;99.90;;;;;;4938668;29;20789;-71
2023/09/18 14:20:19;;;;;;;1.27;0.80;;;24.20;99.90;;;;;;4938630;29;20240;-70
2023/09/18 14:22:49;;;;;;;3.17;0.88;;;24.10;99.90;;;;;;4938247;29;20209;-71
2023/09/18 14:25:16;;;;;;;1.80;0.77;;;24.20;99.90;;;;;;4936559;28;20208;-73
2023/09/18 14:27:43;;;;;;;1.33;0.80;;;24.10;99.90;;;;;;4938048;28;20259;-72
2023/09/18 14:30:13;;;;;;;0.80;0.50;;;24.20;99.90;;;;;;4937333;29;20240;-72
2023/09/18 14:32:41;;;;;;;1.02;0.80;;;24.20;99.90;;;;;;4955120;29;20208;-68
2023/09/18 14:35:08;;;;;;;0.95;0.77;;;24.00;99.90;;;;;;4926653;29;20299;-70
2023/09/18 14:37:36;;;;;;;1.95;1.13;;;24.00;99.90;;;;;;4937442;29;20244;-69
2023/09/18 14:40:03;;;;;;;3.03;0.73;;;23.80;99.90;;;;;;4937532;29;20236;-73
2023/09/18 14:42:30;;;;;;;4.28;0.80;;;23.60;99.90;;;;;;4937416;29;20219;-69
2023/09/18 14:44:57;;;;;;;3.42;0.90;;;23.30;99.90;;;;;;4949111;28;20248;-73
2023/09/18 14:47:25;;;;;;;1.88;0.90;;;23.20;99.90;;;;;;4937096;29;20702;-71
2023/09/18 14:49:52;;;;;;;1.95;0.85;;;23.10;99.90;;;;;;4941128;29;20233;-70
2023/09/18 14:52:23;;;;;;;2.60;0.90;;;22.90;99.90;;;;;;4936966;29;20247;-70
2023/09/18 14:54:50;;;;;;;4.28;0.98;;;22.10;99.90;;;;;;4936722;29;20208;-71
2023/09/18 14:57:16;;;;;;;3.30;0.82;;;21.40;99.90;;;;;;4936601;29;20644;-73
2023/09/18 14:59:47;;;;;;;1.50;0.82;;;20.90;99.90;;;;;;4937725;29;20235;-71
2023/09/18 15:02:16;;;;;;;2.75;1.40;;;20.70;99.90;;;;;;4937016;29;20589;-71
2023/09/18 15:04:44;;;;;;;1.65;0.90;;;20.50;99.90;;;;;;4937163;29;20209;-72
2023/09/18 15:07:11;;;;;;;1.65;0.85;;;20.40;99.90;;;;;;4937081;29;20260;-70
2023/09/18 15:09:38;;;;;;;1.40;1.00;;;20.50;99.90;;;;;;4937195;29;20205;-71
2023/09/18 15:12:07;;;;;;;2.50;0.98;;;20.70;99.90;;;;;;4936792;29;20683;-70
2023/09/18 15:14:35;;;;;;;1.08;0.70;;;20.90;99.90;;;;;;4936260;29;20268;-71
2023/09/18 15:17:02;;;;;;;2.42;1.05;;;21.20;99.90;;;;;;4936839;29;20241;-70
2023/09/18 15:19:29;;;;;;;1.40;1.20;;;21.30;99.90;;;;;;4939651;29;20254;-72
2023/09/18 15:21:57;;;;;;;2.15;0.88;;;21.20;99.90;;;;;;4936749;29;20545;-72
2023/09/18 15:24:24;;;;;;;2.40;1.10;;;21.20;99.90;;;;;;4937062;29;20346;-74
2023/09/18 15:26:51;;;;;;;1.33;0.85;;;21.30;99.90;;;;;;4917838;29;20285;-72
2023/09/18 15:29:18;;;;;;;1.95;1.00;;;21.40;99.90;;;;;;4917940;29;20249;-74
2023/09/18 15:31:46;;;;;;;1.20;0.73;;;21.50;99.90;;;;;;4936202;29;20241;-73
2023/09/18 15:34:13;;;;;;;1.20;1.00;;;21.50;99.90;;;;;;4936596;29;20614;-71
2023/09/18 15:36:40;;;;;;;1.15;0.85;;;21.50;99.90;;;;;;4936332;29;20256;-70
2023/09/18 15:39:09;;;;;;;1.00;0.70;;;21.60;99.90;;;;;;4936935;29;20296;-72
2023/09/18 15:41:38;;;;;;;1.40;1.05;;;21.60;99.90;;;;;;4936908;29;20209;-70
2023/09/18 15:44:06;;;;;;;2.53;0.80;;;21.50;99.90;;;;;;4936458;29;20608;-69
2023/09/18 15:46:34;;;;;;;0.93;0.70;;;21.40;99.90;;;;;;4933134;29;20260;-75
2023/09/18 15:49:01;;;;;;;1.50;0.73;;;21.40;99.90;;;;;;4936187;29;20213;-70
2023/09/18 15:51:28;;;;;;;3.20;1.25;;;21.60;99.90;;;;;;4936487;29;20208;-71
2023/09/18 15:53:55;;;;;;;2.20;1.27;;;21.70;99.90;;;;;;4936322;29;20299;-69
2023/09/18 15:56:23;;;;;;;3.50;1.25;;;21.60;99.90;;;;;;4935933;29;20234;-72
2023/09/18 15:58:50;;;;;;;1.33;0.88;;;21.60;99.90;;;;;;4936667;29;20327;-71
2023/09/18 16:01:17;;;;;;;1.02;0.73;;;21.80;99.90;;;;;;4936143;29;20236;-69
2023/09/18 16:03:46;;;;;;;2.67;1.00;;;21.80;99.90;;;;;;4936161;29;20241;-71
2023/09/18 16:06:14;;;;;;;2.00;1.10;;;21.80;99.90;;;;;;4935941;29;20272;-70
2023/09/18 16:08:41;;;;;;;1.80;1.20;;;21.60;99.90;;;;;;4935752;29;20612;-71
2023/09/18 16:11:08;;;;;;;1.13;0.77;;;21.60;99.90;;;;;;4935990;29;20288;-70
2023/09/18 16:13:38;;;;;;;1.33;0.90;;;21.70;99.90;;;;;;4936082;29;20213;-71
2023/09/18 16:16:05;;;;;;;1.95;0.70;;;21.80;99.90;;;;;;4936021;29;20225;-70
2023/09/18 16:18:32;;;;;;;2.85;0.80;;;21.90;99.90;;;;;;4935503;29;20287;-70
2023/09/18 16:20:59;;;;;;;1.10;0.80;;;21.80;99.90;;;;;;4935847;29;20248;-72
2023/09/18 16:23:26;;;;;;;1.33;0.90;;;21.80;99.90;;;;;;4936136;29;20231;-70
2023/09/18 16:25:53;;;;;;;2.40;0.80;;;21.70;99.90;;;;;;4935579;29;20232;-71
2023/09/18 16:28:23;;;;;;;2.22;1.10;;;21.50;99.90;;;;;;4936482;29;20248;-71
2023/09/18 16:30:51;;;;;;;1.23;0.80;;;21.40;99.90;;;;;;4936136;29;20216;-72
2023/09/18 16:33:18;;;;;;;1.45;0.75;;;21.30;99.90;;;;;;4936053;29;20295;-71
2023/09/18 16:35:46;;;;;;;5.38;2.40;;;21.30;99.90;;;;;;4935570;29;20300;-70
2023/09/18 16:38:13;;;;;;;3.00;0.85;;;21.10;99.90;;;;;;4935995;29;20267;-71
2023/09/18 16:40:40;;;;;;;0.82;0.63;;;21.00;99.90;;;;;;4935964;29;20295;-71
2023/09/18 16:43:08;;;;;;;1.17;0.80;;;20.70;99.90;;;;;;4935661;29;20687;-71
2023/09/18 16:45:35;;;;;;;0.60;0.50;;;20.70;99.90;;;;;;4935818;29;20693;-71
2023/09/18 16:48:05;;;;;;;1.42;0.70;;;20.60;99.90;;;;;;4935932;29;20243;-72
2023/09/18 16:50:31;;;;;;;2.15;0.70;;;20.50;99.90;;;;;;4936298;29;20209;-70
2023/09/18 16:52:59;;;;;;;0.40;0.40;;;20.40;99.90;;;;;;4935729;29;20240;-71
2023/09/18 16:55:26;;;;;;;2.15;0.60;;;20.40;99.90;;;;;;4935545;29;20219;-71
2023/09/18 16:57:53;;;;;;;2.28;0.57;;;20.40;99.90;;;;;;4935442;29;20691;-71
2023/09/18 17:00:21;;;;;;;1.10;0.40;;;20.40;99.90;;;;;;4935558;29;20230;-71
2023/09/18 17:02:48;;;;;;;2.47;0.70;;;20.40;99.90;;;;;;4935710;29;20217;-71
2023/09/18 17:05:16;;;;;;;0.68;0.47;;;20.40;99.90;;;;;;4935423;29;20209;-71
2023/09/18 17:07:43;;;;;;;2.35;0.55;;;20.30;99.90;;;;;;4935530;29;20235;-72
2023/09/18 17:10:11;;;;;;;0.98;0.35;;;20.20;99.90;;;;;;4934907;29;20221;-72
2023/09/18 17:12:38;;;;;;;1.27;0.47;;;20.20;99.90;;;;;;4933527;29;20303;-70
2023/09/18 17:15:09;;;;;;;1.15;0.50;;;20.20;99.90;;;;;;4934381;29;20605;-70
2023/09/18 17:17:35;;;;;;;1.55;0.40;;;20.00;99.90;;;;;;4934068;29;20311;-70
2023/09/18 17:20:03;;;;;;;1.10;0.40;;;19.90;99.90;;;;;;4933799;29;20260;-71
2023/09/18 17:22:32;;;;;;;0.98;0.40;;;19.90;99.90;;;;;;4934178;29;20283;-71
2023/09/18 17:25:00;;;;;;;0.68;0.40;;;19.80;99.90;;;;;;4933820;29;20224;-70
2023/09/18 17:27:26;;;;;;;0.88;0.60;;;19.80;99.90;;;;;;4934453;29;20235;-71
2023/09/18 17:29:56;;;;;;;1.35;0.45;;;19.80;99.90;;;;;;4933961;29;20244;-70
2023/09/18 17:32:23;;;;;;;1.08;0.50;;;19.80;99.90;;;;;;4934037;29;20248;-70
2023/09/18 17:34:50;;;;;;;0.90;0.68;;;19.80;99.90;;;;;;4934181;29;20256;-71
2023/09/18 17:37:17;;;;;;;2.03;0.55;;;19.80;99.90;;;;;;4934772;29;20237;-70
2023/09/18 17:39:45;;;;;;;0.70;0.40;;;19.70;99.90;;;;;;4937769;29;20277;-71
2023/09/18 17:42:13;;;;;;;0.70;0.50;;;19.70;99.90;;;;;;4937521;29;20248;-71
2023/09/18 17:44:39;;;;;;;2.00;0.70;;;19.60;99.90;;;;;;4937447;29;20209;-71
2023/09/18 17:47:06;;;;;;;2.75;0.40;;;19.50;99.90;;;;;;4937310;29;20264;-71
2023/09/18 17:49:35;;;;;;;0.45;0.45;;;19.60;99.90;;;;;;4937136;29;20259;-72
2023/09/18 17:52:03;;;;;;;2.10;0.60;;;19.60;99.90;;;;;;4937320;29;20538;-71
2023/09/18 17:54:30;;;;;;;1.30;0.55;;;19.50;99.90;;;;;;4937527;29;20205;-71
2023/09/18 17:56:59;;;;;;;1.80;0.50;;;19.50;99.90;;;;;;4937368;29;20271;-70
2023/09/18 17:59:26;;;;;;;1.25;0.50;;;19.50;99.90;;;;;;4937534;29;20237;-71
2023/09/18 18:01:53;;;;;;;2.83;0.40;;;19.50;99.90;;;;;;4937552;29;20912;-72
2023/09/18 18:04:20;;;;;;;1.75;0.70;;;19.40;99.90;;;;;;4937454;29;20208;-71
2023/09/18 18:06:48;;;;;;;2.60;0.60;;;19.40;99.90;;;;;;4937304;29;20229;-70
2023/09/18 18:09:17;;;;;;;1.92;0.57;;;19.30;99.90;;;;;;4937224;29;20735;-70
2023/09/18 18:11:45;;;;;;;1.13;0.50;;;19.30;99.90;;;;;;4900762;29;1093735;-70
2023/09/18 18:14:13;;;;;;;1.33;0.43;;;19.20;99.90;;;;;;4937984;29;20208;-71
2023/09/18 18:16:40;;;;;;;4.00;0.77;;;19.30;99.90;;;;;;4938207;29;20243;-71
2023/09/18 18:19:07;;;;;;;1.80;0.50;;;19.20;99.90;;;;;;4938000;29;20782;-72
2023/09/18 18:21:34;;;;;;;1.83;0.65;;;19.10;99.90;;;;;;4938328;29;20236;-71
2023/09/18 18:24:03;;;;;;;1.08;0.70;;;19.00;99.90;;;;;;4937874;29;20300;-71
2023/09/18 18:26:33;;;;;;;3.40;0.68;;;19.00;99.90;;;;;;4937862;29;20235;-72
2023/09/18 18:29:03;;;;;;;4.57;0.88;;;19.00;99.90;;;;;;4937298;29;20205;-70
2023/09/18 18:31:31;;;;;;;0.63;0.38;;;19.00;99.90;;;;;;4936974;29;20283;-72
2023/09/18 18:33:59;;;;;;;2.70;0.68;;;19.00;99.90;;;;;;4945208;29;20216;-71
2023/09/18 18:36:27;;;;;;;2.97;0.60;;;18.90;99.90;;;;;;4955376;28;20339;-72
2023/09/18 18:38:54;;;;;;;1.50;0.60;;;18.90;99.90;;;;;;4954966;29;20246;-70
2023/09/18 18:41:21;;;;;;;2.20;0.70;;;18.80;99.90;;;;;;4954750;29;20294;-71
2023/09/18 18:43:48;;;;;;;2.53;0.57;;;18.70;99.90;;;;;;4944091;29;20241;-70
2023/09/18 18:46:15;;;;;;;2.83;0.55;;;18.70;99.90;;;;;;4935507;29;20264;-70
2023/09/18 18:48:43;;;;;;;2.15;0.68;;;18.60;99.90;;;;;;4936758;28;20244;-71
2023/09/18 18:51:11;;;;;;;1.73;0.60;;;18.60;99.90;;;;;;4936355;29;20293;-71
2023/09/18 18:53:38;;;;;;;6.90;0.82;;;18.60;99.90;;;;;;4940994;29;20286;-71
2023/09/18 18:56:05;;;;;;;2.55;0.75;;;18.40;99.90;;;;;;4955297;28;20319;-72
2023/09/18 18:58:34;;;;;;;1.58;0.77;;;18.50;99.90;;;;;;4954960;28;20323;-71
2023/09/18 19:01:02;;;;;;;2.75;1.77;;;18.50;99.90;;;;;;4954815;28;20215;-71
2023/09/18 19:03:30;;;;;;;1.73;0.63;;;18.50;99.90;;;;;;4946725;28;20690;-70
2023/09/18 19:06:00;;;;;;;1.33;0.40;;;18.50;99.90;;;;;;4935843;29;20240;-70
2023/09/18 19:08:27;;;;;;;3.47;0.75;;;18.40;99.90;;;;;;4928031;29;20206;-70
2023/09/18 19:10:54;;;;;;;2.58;0.77;;;18.40;99.90;;;;;;4930033;29;20303;-70
2023/09/18 19:13:21;;;;;;;1.45;0.50;;;18.40;99.90;;;;;;4933708;29;20296;-72
2023/09/18 19:15:48;;;;;;;2.20;0.60;;;18.30;99.90;;;;;;4931590;29;20212;-70
2023/09/18 19:18:16;;;;;;;3.97;0.65;;;18.30;99.90;;;;;;4935064;29;20236;-71
2023/09/18 19:20:46;;;;;;;2.65;0.63;;;18.30;99.90;;;;;;4930554;29;20583;-71
2023/09/18 19:23:14;;;;;;;1.83;0.75;;;18.30;99.90;;;;;;4936558;29;20244;-71
2023/09/18 19:25:47;;;;;;;2.08;0.70;;;18.20;99.90;;;;;;4926652;29;20201;-71
2023/09/18 19:28:14;;;;;;;2.85;0.85;;;18.20;99.90;;;;;;4933128;29;20217;-70
2023/09/18 19:30:45;;;;;;;3.75;0.73;;;18.20;99.90;;;;;;4933831;29;20259;-71
2023/09/18 19:33:13;;;;;;;1.70;0.65;;;18.20;99.90;;;;;;4935547;29;20229;-72
2023/09/18 19:35:40;;;;;;;3.53;0.65;;;18.10;99.90;;;;;;4931824;29;20216;-71
2023/09/18 19:38:07;;;;;;;2.35;0.50;;;18.10;99.90;;;;;;4936256;29;20201;-71
2023/09/18 19:40:35;;;;;;;2.88;0.77;;;18.00;99.90;;;;;;4929713;29;20628;-70
2023/09/18 19:43:03;;;;;;;2.25;0.57;;;17.90;99.90;;;;;;4934897;29;20294;-71
2023/09/18 19:45:30;;;;;;;5.32;0.65;;;17.90;99.90;;;;;;4927427;29;20291;-71
2023/09/18 19:47:57;;;;;;;2.28;0.70;;;17.80;99.90;;;;;;4934100;29;20241;-71
2023/09/18 19:50:28;;;;;;;3.90;1.03;;;17.90;99.90;;;;;;4933391;29;20212;-72
2023/09/18 19:52:55;;;;;;;2.63;0.73;;;17.90;99.90;;;;;;4932440;29;20236;-71
2023/09/18 19:55:23;;;;;;;3.70;0.93;;;17.80;99.90;;;;;;4924127;29;20307;-71
2023/09/18 19:57:53;;;;;;;2.72;0.70;;;17.80;99.90;;;;;;4930565;29;20288;-71
2023/09/18 20:00:20;;;;;;;2.60;0.90;;;17.80;99.90;;;;;;4921858;29;20734;-71
2023/09/18 20:02:50;;;;;;;1.88;0.60;;;17.70;99.90;;;;;;4928789;29;20618;-70
2023/09/18 20:05:17;;;;;;;3.47;0.73;;;17.70;99.90;;;;;;4929656;29;20213;-70
2023/09/18 20:07:44;;;;;;;2.33;0.73;;;17.70;99.90;;;;;;4929624;28;20656;-71
2023/09/18 20:10:16;;;;;;;3.83;0.90;;;17.70;99.90;;;;;;4935497;29;20221;-70
2023/09/18 20:12:43;;;;;;;9.43;1.37;;;17.60;99.90;;;;;;4928955;29;20620;-71
2023/09/18 20:15:12;;;;;;;5.13;0.77;;;17.60;99.90;;;;;;4935471;29;20263;-70
2023/09/18 20:17:40;;;;;;;3.93;0.90;;;17.50;99.90;;;;;;4926672;29;20317;-70
2023/09/18 20:20:08;;;;;;;4.28;1.38;;;17.50;99.90;;;;;;4935414;29;20236;-71
2023/09/18 20:22:35;;;;;;;4.68;0.88;;;17.40;99.90;;;;;;4933524;29;20240;-71
2023/09/18 20:25:02;;;;;;;6.55;0.82;;;17.40;99.90;;;;;;4933972;29;20675;-70
2023/09/18 20:27:29;;;;;;;4.57;0.70;;;17.40;99.90;;;;;;4931668;29;20237;-70
2023/09/18 20:29:57;;;;;;;5.87;0.80;;;17.40;99.90;;;;;;4933272;29;20630;-71
2023/09/18 20:32:28;;;;;;;4.40;1.20;;;17.40;99.90;;;;;;4921747;29;20243;-70
2023/09/18 20:34:54;;;;;;;7.90;1.17;;;17.30;99.90;;;;;;4931840;29;20236;-70
2023/09/18 20:37:21;;;;;;;1.90;1.00;;;17.30;99.90;;;;;;4920357;29;20260;-71
2023/09/18 20:39:48;;;;;;;6.47;0.93;;;17.20;99.90;;;;;;4930124;29;20438;-70
2023/09/18 20:42:15;;;;;;;3.83;0.83;;;17.10;99.90;;;;;;4928405;29;20233;-70
2023/09/18 20:44:42;;;;;;;5.70;0.83;;;17.10;99.90;;;;;;4928867;29;20245;-70
2023/09/18 20:47:09;;;;;;;6.10;0.83;;;17.10;99.90;;;;;;4927579;29;20734;-70
2023/09/18 20:49:37;;;;;;;5.57;1.10;;;17.10;99.90;;;;;;4928661;29;20613;-70
2023/09/18 20:52:05;;;;;;;4.00;1.17;;;17.10;99.90;;;;;;4933929;29;20244;-70
2023/09/18 20:54:32;;;;;;;3.73;0.73;;;17.10;99.90;;;;;;4927367;29;20301;-70
2023/09/18 20:56:59;;;;;;;4.57;1.40;;;17.10;99.90;;;;;;4934422;29;20316;-70
2023/09/18 20:59:27;;;;;;;6.00;1.17;;;17.00;99.90;;;;;;4926527;29;20316;-72
2023/09/18 21:01:54;;;;;;;5.67;0.90;;;17.00;99.90;;;;;;4934515;29;20215;-71